Time;durP1;ratioP1;P1;durP2;ratioP2;P2;SDS_P1;SDS_P2;PMS_P1;PMS_P2;Temp;Humidity;BMP_temperature;BMP_pressure;BME280_temperature;BME280_humidity;BME280_pressure;Samples;Min_cycle;Max_cycle;Signal;HPM_P1;HPM_P2
2021/10/16 00:00:11;;;;;;;7.65;5.63;;;;;;;12.35;100.00;96619.47;5016731;28;20085;-54
2021/10/16 00:02:40;;;;;;;6.67;4.53;;;;;;;12.05;100.00;96625.13;5027525;28;20088;-49
2021/10/16 00:05:10;;;;;;;8.00;5.25;;;;;;;11.83;100.00;96628.97;5019809;28;20627;-50
2021/10/16 00:07:38;;;;;;;7.13;4.82;;;;;;;12.02;100.00;96635.97;5023686;28;20630;-54
2021/10/16 00:10:08;;;;;;;6.85;4.95;;;;;;;12.00;100.00;96632.66;5025572;28;20073;-53
2021/10/16 00:12:36;;;;;;;6.78;4.68;;;;;;;12.08;100.00;96636.22;5025496;28;20080;-56
2021/10/16 00:15:06;;;;;;;6.55;4.75;;;;;;;12.10;100.00;96636.88;5031226;28;20088;-50
2021/10/16 00:17:35;;;;;;;11.05;4.90;;;;;;;12.14;100.00;96645.34;5026352;28;20472;-53
2021/10/16 00:20:04;;;;;;;8.00;5.10;;;;;;;12.04;100.00;96650.72;5028032;28;20624;-58
2021/10/16 00:22:34;;;;;;;6.63;5.18;;;;;;;11.99;100.00;96636.28;5025866;28;20115;-52
2021/10/16 00:25:03;;;;;;;7.40;4.93;;;;;;;11.84;100.00;96635.97;5022840;28;20072;-50
2021/10/16 00:27:31;;;;;;;6.32;4.82;;;;;;;11.67;100.00;96634.91;5029686;28;20057;-51
2021/10/16 00:30:00;;;;;;;10.05;5.25;;;;;;;11.74;100.00;96633.34;5023981;28;20085;-52
2021/10/16 00:32:28;;;;;;;6.13;4.80;;;;;;;11.75;100.00;96636.81;5024912;28;20141;-55
2021/10/16 00:34:56;;;;;;;7.93;5.07;;;;;;;11.82;100.00;96636.06;5028566;28;20069;-54
2021/10/16 00:37:25;;;;;;;9.32;5.50;;;;;;;11.82;100.00;96635.22;5036340;28;20551;-54
2021/10/16 00:39:55;;;;;;;6.28;4.57;;;;;;;11.81;100.00;96637.06;5037298;28;20513;-52
2021/10/16 00:42:23;;;;;;;8.20;5.13;;;;;;;11.68;100.00;96633.09;5024297;28;20080;-54
2021/10/16 00:44:52;;;;;;;8.45;5.22;;;;;;;11.77;100.00;96633.03;5020283;28;20070;-54
2021/10/16 00:47:20;;;;;;;8.10;5.20;;;;;;;11.78;100.00;96639.16;5026850;28;20065;-50
2021/10/16 00:49:49;;;;;;;8.65;5.13;;;;;;;11.69;100.00;96632.09;5032718;28;20071;-53
2021/10/16 00:52:17;;;;;;;10.95;5.45;;;;;;;11.53;100.00;96630.13;5039508;28;20069;-51
2021/10/16 00:54:46;;;;;;;8.27;4.82;;;;;;;11.14;100.00;96631.06;5042683;28;20067;-49
2021/10/16 00:57:16;;;;;;;7.78;4.63;;;;;;;11.01;100.00;96629.72;5045454;28;20091;-49
2021/10/16 00:59:44;;;;;;;6.10;4.63;;;;;;;11.47;100.00;96631.53;5024461;28;20077;-55
2021/10/16 01:02:19;;;;;;;8.57;4.65;;;;;;;11.17;100.00;96628.16;5019744;28;20069;-57
2021/10/16 01:04:48;;;;;;;7.43;4.60;;;;;;;10.82;100.00;96630.63;5038126;28;20481;-53
2021/10/16 01:07:17;;;;;;;7.80;4.70;;;;;;;11.20;100.00;96632.31;5036646;28;20077;-55
2021/10/16 01:09:46;;;;;;;9.40;5.40;;;;;;;10.93;100.00;96639.19;5022249;28;20073;-52
2021/10/16 01:12:15;;;;;;;10.10;5.20;;;;;;;11.04;100.00;96629.44;5021478;28;20089;-54
2021/10/16 01:14:48;;;;;;;7.15;5.25;;;;;;;11.22;100.00;96629.53;5028659;28;20092;-55
2021/10/16 01:17:18;;;;;;;8.25;5.20;;;;;;;11.45;100.00;96633.47;5025273;28;20504;-52
2021/10/16 01:19:47;;;;;;;8.25;5.53;;;;;;;11.42;100.00;96628.47;5027525;28;20069;-52
2021/10/16 01:22:17;;;;;;;10.57;6.78;;;;;;;11.13;100.00;96624.13;5026910;28;20552;-52
2021/10/16 01:24:45;;;;;;;10.00;6.22;;;;;;;11.35;100.00;96627.38;5027516;28;20096;-52
2021/10/16 01:27:14;;;;;;;13.35;6.10;;;;;;;11.49;100.00;96626.91;5040172;28;20089;-56
2021/10/16 01:29:43;;;;;;;9.57;6.25;;;;;;;11.60;100.00;96617.97;5042655;28;20076;-52
2021/10/16 01:32:12;;;;;;;9.85;6.53;;;;;;;11.55;100.00;96617.56;5029327;28;20062;-54
2021/10/16 01:34:41;;;;;;;9.52;6.63;;;;;;;11.71;100.00;96609.03;5028175;28;20492;-51
2021/10/16 01:37:10;;;;;;;10.25;7.43;;;;;;;11.71;100.00;96607.22;5034003;28;20080;-52
2021/10/16 01:39:40;;;;;;;11.50;7.35;;;;;;;11.75;100.00;96600.66;5025249;28;20061;-53
2021/10/16 01:42:12;;;;;;;10.77;7.50;;;;;;;11.55;100.00;96601.72;5025808;28;20081;-54
2021/10/16 01:44:41;;;;;;;11.75;7.18;;;;;;;11.64;100.00;96601.69;5045480;28;20495;-57
2021/10/16 01:47:09;;;;;;;10.25;7.75;;;;;;;11.70;100.00;96602.91;5042162;28;20071;-53
2021/10/16 01:49:38;;;;;;;10.98;7.40;;;;;;;11.67;100.00;96605.03;5034879;28;20057;-52
2021/10/16 01:52:07;;;;;;;11.45;6.68;;;;;;;11.59;100.00;96606.56;5023703;28;20544;-53
2021/10/16 01:54:35;;;;;;;13.43;7.10;;;;;;;11.33;100.00;96608.25;5024294;28;20061;-50
2021/10/16 01:57:05;;;;;;;9.60;6.57;;;;;;;11.24;100.00;96611.75;5029184;28;20100;-54
2021/10/16 01:59:34;;;;;;;10.40;6.32;;;;;;;11.35;100.00;96606.28;5045005;28;20278;-53
2021/10/16 02:02:06;;;;;;;9.60;6.05;;;;;;;11.55;100.00;96602.56;5028277;28;20072;-53
2021/10/16 02:04:35;;;;;;;8.52;5.72;;;;;;;11.60;100.00;96604.78;5021700;28;20088;-52
2021/10/16 02:07:04;;;;;;;11.00;7.05;;;;;;;11.72;100.00;96608.03;5022456;28;20084;-53
2021/10/16 02:09:32;;;;;;;8.82;5.88;;;;;;;11.81;100.00;96605.34;5021669;28;20064;-51
2021/10/16 02:12:01;;;;;;;10.45;6.50;;;;;;;11.80;100.00;96606.34;5043414;28;20088;-56
2021/10/16 02:14:30;;;;;;;11.70;7.93;;;;;;;11.94;100.00;96607.66;5019632;28;20068;-50
2021/10/16 02:16:59;;;;;;;10.88;6.90;;;;;;;11.95;100.00;96611.97;5038636;28;20072;-53
2021/10/16 02:19:27;;;;;;;11.00;6.80;;;;;;;11.87;100.00;96609.22;5029197;28;20062;-50
2021/10/16 02:21:56;;;;;;;8.00;5.70;;;;;;;11.71;100.00;96611.66;5036109;28;20512;-52
2021/10/16 02:24:24;;;;;;;9.93;6.22;;;;;;;11.65;100.00;96599.88;5040020;28;20522;-58
2021/10/16 02:26:52;;;;;;;11.48;7.05;;;;;;;11.42;100.00;96615.25;5024158;28;20077;-54
2021/10/16 02:29:21;;;;;;;13.30;7.80;;;;;;;11.52;100.00;96597.56;5025257;28;20064;-50
2021/10/16 02:31:51;;;;;;;12.80;8.30;;;;;;;11.91;100.00;96604.50;5040677;28;20474;-49
2021/10/16 02:34:19;;;;;;;11.40;6.95;;;;;;;11.90;100.00;96601.00;5033913;28;20069;-53
2021/10/16 02:36:48;;;;;;;12.65;8.50;;;;;;;12.08;100.00;96601.84;5029247;28;20079;-50
2021/10/16 02:39:16;;;;;;;11.13;7.18;;;;;;;11.93;100.00;96603.34;5022868;28;20104;-54
2021/10/16 02:41:44;;;;;;;12.07;7.45;;;;;;;12.03;100.00;96603.28;5030421;28;20080;-54
2021/10/16 02:44:13;;;;;;;12.27;8.45;;;;;;;12.17;100.00;96596.63;5025455;28;20073;-54
2021/10/16 02:46:41;;;;;;;13.55;9.57;;;;;;;12.26;100.00;96598.38;5036249;28;20551;-55
2021/10/16 02:49:11;;;;;;;11.95;8.18;;;;;;;12.32;100.00;96600.44;5039414;28;20072;-55
2021/10/16 02:51:39;;;;;;;12.40;8.07;;;;;;;12.20;100.00;96607.75;5034417;28;20097;-55
2021/10/16 02:54:08;;;;;;;13.85;9.70;;;;;;;12.39;100.00;96606.78;5017874;28;20096;-57
2021/10/16 02:56:36;;;;;;;12.15;9.13;;;;;;;12.55;100.00;96608.69;5018121;28;20081;-51
2021/10/16 02:59:05;;;;;;;17.63;9.90;;;;;;;12.45;100.00;96607.94;5024216;28;20069;-49
2021/10/16 03:01:33;;;;;;;16.02;10.18;;;;;;;12.47;100.00;96608.66;5036721;28;20068;-53
2021/10/16 03:04:02;;;;;;;14.10;8.55;;;;;;;12.43;100.00;96618.69;5035667;28;20069;-57
2021/10/16 03:06:32;;;;;;;12.95;8.90;;;;;;;12.23;100.00;96619.84;5025399;28;20474;-53
2021/10/16 03:09:00;;;;;;;12.18;7.57;;;;;;;12.00;100.00;96625.53;5021509;28;20612;-53
2021/10/16 03:11:29;;;;;;;10.70;7.75;;;;;;;12.00;100.00;96622.06;5025930;28;20077;-56
2021/10/16 03:13:58;;;;;;;12.35;8.20;;;;;;;12.13;100.00;96625.19;5028568;28;20072;-51
2021/10/16 03:16:27;;;;;;;13.57;9.25;;;;;;;12.30;100.00;96628.81;5029863;28;20076;-57
2021/10/16 03:18:55;;;;;;;12.57;7.72;;;;;;;12.25;100.00;96620.50;5027748;28;20465;-53
2021/10/16 03:21:23;;;;;;;13.18;7.28;;;;;;;12.15;100.00;96623.25;5039101;28;20084;-56
2021/10/16 03:23:53;;;;;;;13.02;7.55;;;;;;;11.88;100.00;96626.75;5048489;28;20080;-55
2021/10/16 03:26:22;;;;;;;9.70;6.97;;;;;;;11.78;100.00;96628.59;5025089;28;20176;-51
2021/10/16 03:28:50;;;;;;;14.65;6.70;;;;;;;11.65;100.00;96624.47;5031996;28;20060;-50
2021/10/16 03:31:18;;;;;;;10.73;7.93;;;;;;;11.85;100.00;96624.41;5025437;28;20081;-56
2021/10/16 03:33:47;;;;;;;11.88;6.68;;;;;;;11.88;100.00;96629.41;5018265;28;20066;-55
2021/10/16 03:36:15;;;;;;;10.35;7.30;;;;;;;11.92;100.00;96624.66;5019247;28;20096;-54
2021/10/16 03:38:44;;;;;;;12.93;7.90;;;;;;;11.80;100.00;96623.97;5011291;28;20085;-55
2021/10/16 03:41:14;;;;;;;12.15;7.70;;;;;;;11.73;100.00;96628.19;5022487;28;20073;-56
2021/10/16 03:43:42;;;;;;;13.82;8.57;;;;;;;11.78;100.00;96625.94;5020070;28;20065;-55
2021/10/16 03:46:10;;;;;;;13.05;7.60;;;;;;;10.97;100.00;96623.06;5020555;28;20076;-54
2021/10/16 03:48:39;;;;;;;18.45;8.40;;;;;;;11.70;100.00;96625.84;5028099;28;20063;-52
2021/10/16 03:51:07;;;;;;;17.40;9.07;;;;;;;11.87;100.00;96625.06;5049988;28;20076;-53
2021/10/16 03:53:36;;;;;;;14.02;10.05;;;;;;;12.04;100.00;96624.28;5047908;28;20085;-50
2021/10/16 03:56:05;;;;;;;15.60;10.00;;;;;;;12.20;100.00;96615.66;5033487;28;20073;-51
2021/10/16 03:58:34;;;;;;;13.63;9.13;;;;;;;12.29;100.00;96620.06;5029758;28;20826;-55
2021/10/16 04:01:03;;;;;;;16.45;9.75;;;;;;;11.98;100.00;96619.59;5033851;28;20068;-55
2021/10/16 04:03:32;;;;;;;15.40;10.35;;;;;;;12.25;100.00;96621.34;5046162;28;20064;-60
2021/10/16 04:06:00;;;;;;;15.95;9.20;;;;;;;12.25;100.00;96618.72;5049392;28;20080;-60
2021/10/16 04:08:28;;;;;;;17.95;11.52;;;;;;;12.33;100.00;96618.78;5042389;28;20061;-60
2021/10/16 04:10:57;;;;;;;16.38;10.52;;;;;;;12.24;100.00;96617.03;5025272;28;20069;-60
2021/10/16 04:13:25;;;;;;;15.38;9.80;;;;;;;12.29;100.00;96619.25;5020977;28;20061;-60
2021/10/16 04:15:55;;;;;;;16.65;10.02;;;;;;;12.42;100.00;96622.34;5026649;28;20478;-60
2021/10/16 04:18:24;;;;;;;16.90;10.95;;;;;;;12.51;100.00;96621.41;5021669;28;20103;-60
2021/10/16 04:20:52;;;;;;;18.10;10.00;;;;;;;12.42;100.00;96616.19;5026388;28;20541;-60
2021/10/16 04:23:21;;;;;;;17.60;10.52;;;;;;;12.47;100.00;96620.03;5044859;28;20052;-60
2021/10/16 04:25:49;;;;;;;16.20;9.80;;;;;;;12.52;100.00;96619.59;5035000;28;20533;-58
2021/10/16 04:28:17;;;;;;;15.23;10.25;;;;;;;12.45;100.00;96614.06;5031376;28;20065;-60
2021/10/16 04:30:46;;;;;;;16.63;9.55;;;;;;;12.40;100.00;96621.66;5043659;28;20546;-60
2021/10/16 04:33:16;;;;;;;14.52;9.10;;;;;;;12.18;100.00;96619.44;5041980;28;20073;-59
2021/10/16 04:35:45;;;;;;;15.32;9.88;;;;;;;12.24;100.00;96617.03;5025267;28;20093;-58
2021/10/16 04:38:14;;;;;;;17.02;10.00;;;;;;;11.81;100.00;96612.44;5025099;28;20080;-61
2021/10/16 04:40:43;;;;;;;15.75;10.10;;;;;;;12.00;100.00;96619.44;5021090;28;20064;-61
2021/10/16 04:43:12;;;;;;;17.83;11.68;;;;;;;12.00;100.00;96614.97;5023275;28;20069;-60
2021/10/16 04:45:40;;;;;;;17.20;11.48;;;;;;;12.17;100.00;96613.31;5031486;28;20069;-59
2021/10/16 04:48:09;;;;;;;14.35;9.57;;;;;;;12.48;100.00;96616.41;5042221;28;20085;-61
2021/10/16 04:50:38;;;;;;;15.38;9.75;;;;;;;12.54;100.00;96623.75;5017451;28;20089;-60
2021/10/16 04:53:07;;;;;;;14.68;10.73;;;;;;;12.61;100.00;96620.50;5038610;28;20076;-60
2021/10/16 04:55:35;;;;;;;13.88;8.50;;;;;;;12.33;100.00;96621.41;5043327;28;20068;-61
2021/10/16 04:58:04;;;;;;;12.90;9.35;;;;;;;12.51;100.00;96618.75;5033251;28;20104;-60
2021/10/16 05:00:32;;;;;;;14.63;9.77;;;;;;;12.37;100.00;96619.28;5027707;28;20065;-60
2021/10/16 05:03:01;;;;;;;15.98;9.82;;;;;;;12.26;100.00;96617.72;5025844;28;20077;-60
2021/10/16 05:05:29;;;;;;;14.02;9.15;;;;;;;12.46;100.00;96615.75;5040880;28;20072;-59
2021/10/16 05:07:59;;;;;;;15.50;8.82;;;;;;;12.41;100.00;96620.66;5046111;28;20075;-60
2021/10/16 05:10:28;;;;;;;16.65;9.48;;;;;;;12.35;100.00;96608.03;5031506;28;20524;-61
2021/10/16 05:12:56;;;;;;;14.60;9.38;;;;;;;12.16;100.00;96616.13;5030266;28;20083;-61
2021/10/16 05:15:25;;;;;;;14.73;9.60;;;;;;;12.24;100.00;96609.09;5040363;28;20090;-60
2021/10/16 05:17:53;;;;;;;13.40;9.95;;;;;;;11.64;100.00;96619.34;5043492;28;20080;-62
2021/10/16 05:20:22;;;;;;;14.50;10.35;;;;;;;12.28;100.00;96620.19;5039415;28;20081;-61
2021/10/16 05:22:51;;;;;;;15.75;9.88;;;;;;;12.35;100.00;96615.97;5041612;28;20072;-61
2021/10/16 05:25:23;;;;;;;19.77;11.23;;;;;;;12.41;100.00;96617.19;5033658;28;20492;-61
2021/10/16 05:27:52;;;;;;;15.25;11.18;;;;;;;12.27;100.00;96621.19;5034203;28;20072;-59
2021/10/16 05:30:20;;;;;;;15.32;10.27;;;;;;;11.62;100.00;96624.75;5037936;28;20076;-59
2021/10/16 05:32:49;;;;;;;15.82;8.90;;;;;;;11.79;100.00;96631.06;5023897;28;20088;-61
2021/10/16 05:35:17;;;;;;;16.27;9.75;;;;;;;12.11;100.00;96628.00;5018711;28;20081;-60
2021/10/16 05:37:46;;;;;;;14.30;9.13;;;;;;;11.00;100.00;96626.25;5034524;28;20482;-60
2021/10/16 05:40:15;;;;;;;12.80;8.27;;;;;;;11.64;100.00;96627.28;5031879;28;20143;-62
2021/10/16 05:42:45;;;;;;;13.57;8.85;;;;;;;11.75;100.00;96629.72;5024732;28;20072;-61
2021/10/16 05:45:13;;;;;;;15.38;10.45;;;;;;;11.84;100.00;96638.59;5022100;28;20608;-60
2021/10/16 05:47:42;;;;;;;14.98;9.80;;;;;;;11.55;100.00;96644.81;5026320;28;20056;-59
2021/10/16 05:50:11;;;;;;;13.90;9.85;;;;;;;11.61;100.00;96643.41;5043085;28;20072;-60
2021/10/16 05:52:39;;;;;;;15.00;9.65;;;;;;;11.78;100.00;96639.16;5041693;28;20551;-60
2021/10/16 05:55:09;;;;;;;15.95;10.30;;;;;;;11.87;100.00;96633.00;5031012;28;20073;-62
2021/10/16 05:57:37;;;;;;;16.17;10.75;;;;;;;11.75;100.00;96637.63;5023995;28;20060;-60
2021/10/16 06:00:09;;;;;;;16.42;10.45;;;;;;;12.01;100.00;96650.16;5042823;28;20535;-50
2021/10/16 06:02:39;;;;;;;12.68;8.68;;;;;;;11.88;100.00;96642.59;5026948;28;21377;-61
2021/10/16 06:05:08;;;;;;;17.33;11.27;;;;;;;11.79;100.00;96643.44;5038828;28;20437;-60
2021/10/16 06:07:36;;;;;;;14.45;10.50;;;;;;;12.10;100.00;96654.56;5039677;28;20465;-61
2021/10/16 06:10:06;;;;;;;14.02;8.93;;;;;;;12.24;100.00;96645.28;5039520;28;20073;-61
2021/10/16 06:12:35;;;;;;;16.27;11.30;;;;;;;12.31;100.00;96660.38;5037963;28;20064;-60
2021/10/16 06:15:04;;;;;;;17.10;11.18;;;;;;;12.53;100.00;96661.78;5038055;28;20099;-60
2021/10/16 06:17:34;;;;;;;15.52;10.80;;;;;;;12.49;100.00;96667.50;5017973;28;20515;-60
2021/10/16 06:20:02;;;;;;;18.20;11.35;;;;;;;12.58;100.00;96663.94;5037389;28;20073;-60
2021/10/16 06:22:31;;;;;;;14.75;9.27;;;;;;;12.56;100.00;96661.47;5043161;28;20069;-60
2021/10/16 06:24:59;;;;;;;18.00;11.13;;;;;;;12.64;100.00;96675.75;5035359;28;20072;-60
2021/10/16 06:27:28;;;;;;;18.05;11.80;;;;;;;12.85;100.00;96678.91;5039697;28;20068;-60
2021/10/16 06:29:56;;;;;;;17.00;11.02;;;;;;;12.96;100.00;96670.72;5026675;28;20069;-61
2021/10/16 06:32:25;;;;;;;15.23;11.27;;;;;;;13.13;100.00;96673.47;5034019;28;20059;-60
2021/10/16 06:34:54;;;;;;;18.95;12.57;;;;;;;12.90;100.00;96673.97;5036357;28;20088;-60
2021/10/16 06:37:23;;;;;;;16.95;11.48;;;;;;;13.18;100.00;96687.06;5027866;28;20057;-61
2021/10/16 06:39:51;;;;;;;16.77;11.10;;;;;;;13.35;100.00;96686.25;5029354;28;20077;-61
2021/10/16 06:42:20;;;;;;;17.60;11.48;;;;;;;13.44;100.00;96689.75;5039105;28;20076;-61
2021/10/16 06:44:48;;;;;;;15.77;11.63;;;;;;;13.37;100.00;96689.56;5028502;28;20614;-61
2021/10/16 06:47:17;;;;;;;15.90;10.73;;;;;;;13.38;100.00;96691.22;5019696;28;20073;-59
2021/10/16 06:49:45;;;;;;;17.95;11.15;;;;;;;13.41;100.00;96685.59;5035727;28;20504;-60
2021/10/16 06:52:15;;;;;;;15.65;10.32;;;;;;;13.41;100.00;96692.72;5035730;28;20453;-60
2021/10/16 06:54:44;;;;;;;17.80;10.63;;;;;;;13.61;100.00;96694.16;5028630;28;20079;-60
2021/10/16 06:57:12;;;;;;;16.75;10.25;;;;;;;13.58;100.00;96706.91;5035307;28;20083;-60
2021/10/16 06:59:41;;;;;;;18.02;11.73;;;;;;;13.58;100.00;96704.25;5023982;28;20081;-61
2021/10/16 07:02:09;;;;;;;17.98;12.30;;;;;;;13.83;100.00;96707.84;5024616;28;20073;-61
2021/10/16 07:04:38;;;;;;;17.67;12.40;;;;;;;13.81;100.00;96697.41;5025527;28;20590;-59
2021/10/16 07:07:06;;;;;;;16.92;10.82;;;;;;;13.52;100.00;96698.59;5023116;28;20080;-61
2021/10/16 07:09:36;;;;;;;15.98;10.13;;;;;;;13.93;100.00;96708.56;5027741;28;20511;-60
2021/10/16 07:12:07;;;;;;;15.20;10.45;;;;;;;13.73;100.00;96705.34;5040915;28;20485;-60
2021/10/16 07:14:36;;;;;;;15.43;10.13;;;;;;;14.13;100.00;96707.31;5030968;28;20521;-59
2021/10/16 07:17:04;;;;;;;17.15;11.05;;;;;;;14.05;100.00;96709.13;5035875;28;20088;-60
2021/10/16 07:19:33;;;;;;;17.17;10.10;;;;;;;14.34;100.00;96706.88;5026359;28;20069;-61
2021/10/16 07:22:01;;;;;;;18.33;11.88;;;;;;;14.27;100.00;96702.38;5028739;28;20072;-60
2021/10/16 07:24:30;;;;;;;18.73;10.50;;;;;;;14.23;100.00;96705.34;5038760;28;20080;-60
2021/10/16 07:27:00;;;;;;;13.43;9.57;;;;;;;14.21;100.00;96706.50;5041836;28;20096;-61
2021/10/16 07:29:28;;;;;;;16.13;8.45;;;;;;;14.42;100.00;96706.91;5040171;28;20084;-62
2021/10/16 07:31:57;;;;;;;13.75;9.30;;;;;;;14.30;100.00;96720.63;5041992;28;20084;-60
2021/10/16 07:34:25;;;;;;;13.00;8.27;;;;;;;14.52;100.00;96703.28;5031278;28;20069;-59
2021/10/16 07:36:53;;;;;;;15.05;8.75;;;;;;;14.54;100.00;96710.09;5025419;28;20474;-61
2021/10/16 07:39:22;;;;;;;14.50;8.02;;;;;;;14.52;100.00;96708.59;5025772;28;20076;-62
2021/10/16 07:41:50;;;;;;;12.05;7.72;;;;;;;14.35;100.00;96702.38;5027741;28;20080;-61
2021/10/16 07:44:20;;;;;;;13.07;8.40;;;;;;;14.54;100.00;96706.63;5018103;28;20078;-61
2021/10/16 07:46:48;;;;;;;11.60;8.32;;;;;;;14.78;100.00;96709.31;5030275;28;20087;-60
2021/10/16 07:49:17;;;;;;;14.18;8.98;;;;;;;14.82;100.00;96717.78;5043353;28;20059;-60
2021/10/16 07:51:46;;;;;;;12.95;9.40;;;;;;;14.54;100.00;96709.28;5032517;28;20069;-59
2021/10/16 07:54:14;;;;;;;12.75;8.95;;;;;;;14.70;100.00;96717.28;5023263;28;20065;-60
2021/10/16 07:56:42;;;;;;;12.43;9.30;;;;;;;14.46;100.00;96712.72;5025307;28;20076;-61
2021/10/16 07:59:11;;;;;;;12.88;9.95;;;;;;;14.80;100.00;96707.31;5017964;28;20061;-60
2021/10/16 08:01:41;;;;;;;10.18;7.68;;;;;;;14.80;100.00;96717.13;5030550;28;20060;-61
2021/10/16 08:04:09;;;;;;;12.60;8.32;;;;;;;14.15;100.00;96729.22;5039940;28;20512;-61
2021/10/16 08:06:38;;;;;;;12.98;9.05;;;;;;;15.02;100.00;96713.78;5023915;28;20483;-61
2021/10/16 08:09:06;;;;;;;12.30;8.50;;;;;;;14.87;100.00;96718.13;5019819;28;20081;-57
2021/10/16 08:11:35;;;;;;;11.85;8.52;;;;;;;15.15;100.00;96715.97;5022663;28;20280;-59
2021/10/16 08:14:04;;;;;;;14.15;8.63;;;;;;;15.07;100.00;96719.47;5019846;28;20080;-61
2021/10/16 08:16:32;;;;;;;11.00;8.38;;;;;;;14.80;100.00;96725.91;5017674;28;20076;-59
2021/10/16 08:19:03;;;;;;;10.43;7.18;;;;;;;14.86;100.00;96724.41;5033044;28;20061;-60
2021/10/16 08:21:32;;;;;;;12.13;7.97;;;;;;;14.54;100.00;96725.19;5034673;28;20061;-62
2021/10/16 08:24:00;;;;;;;10.65;7.22;;;;;;;14.81;100.00;96727.56;5024210;28;20470;-61
2021/10/16 08:26:29;;;;;;;14.45;9.20;;;;;;;15.02;100.00;96727.06;5037808;28;20053;-60
2021/10/16 08:28:57;;;;;;;57.92;43.72;;;;;;;15.54;100.00;96717.91;5024896;28;20085;-61
2021/10/16 08:31:26;;;;;;;19.13;13.82;;;;;;;15.34;100.00;96736.84;5017362;28;20084;-61
2021/10/16 08:33:54;;;;;;;13.40;9.23;;;;;;;15.59;100.00;96736.84;5024335;28;20073;-61
2021/10/16 08:36:24;;;;;;;8.50;6.03;;;;;;;15.28;100.00;96729.56;5040861;28;20091;-60
2021/10/16 08:38:53;;;;;;;10.13;7.10;;;;;;;15.11;100.00;96730.59;5024407;28;20089;-60
2021/10/16 08:41:21;;;;;;;9.65;7.38;;;;;;;15.42;100.00;96733.38;5042040;28;20064;-61
2021/10/16 08:43:50;;;;;;;11.75;6.55;;;;;;;15.19;100.00;96731.38;5045436;28;20797;-61
2021/10/16 08:46:18;;;;;;;22.67;14.27;;;;;;;15.22;100.00;96737.38;5042670;28;20065;-62
2021/10/16 08:48:47;;;;;;;10.48;7.30;;;;;;;15.22;100.00;96738.22;5033750;28;20073;-62
2021/10/16 08:51:16;;;;;;;13.20;7.75;;;;;;;15.51;100.00;96732.34;5023536;28;20077;-60
2021/10/16 08:53:45;;;;;;;15.07;10.93;;;;;;;16.48;100.00;96732.22;5042398;28;20462;-58
2021/10/16 08:56:14;;;;;;;12.77;7.65;;;;;;;16.49;100.00;96726.72;5023777;28;20072;-60
2021/10/16 08:58:42;;;;;;;11.52;7.75;;;;;;;16.21;100.00;96738.81;5015836;28;20072;-59
2021/10/16 09:01:11;;;;;;;11.88;8.05;;;;;;;16.33;100.00;96738.28;5026410;28;20068;-61
2021/10/16 09:03:46;;;;;;;9.85;6.88;;;;;;;16.04;100.00;96733.59;5038697;28;20080;-61
2021/10/16 09:06:16;;;;;;;9.82;6.57;;;;;;;16.77;100.00;96729.75;5044092;28;20076;-60
2021/10/16 09:08:50;;;;;;;12.63;7.07;;;;;;;16.89;100.00;96730.16;5045782;28;20069;-60
2021/10/16 09:11:25;;;;;;;12.63;6.90;;;;;;;17.00;100.00;96728.94;5016718;28;20100;-60
2021/10/16 09:13:57;;;;;;;10.20;6.25;;;;;;;16.62;100.00;96734.16;5035352;28;20061;-60
2021/10/16 09:16:31;;;;;;;16.42;9.73;;;;;;;16.67;100.00;96730.94;5034539;28;20193;-61
2021/10/16 09:19:03;;;;;;;8.85;6.80;;;;;;;17.01;100.00;96723.41;5022758;28;20053;-58
2021/10/16 09:21:33;;;;;;;12.70;7.10;;;;;;;16.90;100.00;96731.81;5029679;28;20072;-59
2021/10/16 09:24:06;;;;;;;11.90;7.82;;;;;;;16.85;100.00;96727.00;5018432;28;20301;-61
2021/10/16 09:26:36;;;;;;;11.23;7.53;;;;;;;17.00;100.00;96732.41;5044777;28;20336;-61
2021/10/16 09:29:06;;;;;;;;;;;;;;;17.48;100.00;96727.69;5044190;28;20114;-60
2021/10/16 09:31:36;;;;;;;27.02;13.45;;;;;;;17.07;100.00;96721.88;5032244;28;20063;-60
2021/10/16 09:34:05;;;;;;;10.43;6.80;;;;;;;16.87;100.00;96740.16;5026654;28;20076;-61
2021/10/16 09:36:35;;;;;;;11.30;7.60;;;;;;;16.68;100.00;96737.91;5026289;28;20069;-60
2021/10/16 09:39:06;;;;;;;16.50;9.87;;;;;;;16.70;100.00;96738.59;5019331;28;20094;-59
2021/10/16 09:41:39;;;;;;;17.55;11.77;;;;;;;17.09;100.00;96731.34;5018016;28;20436;-62
2021/10/16 09:44:24;;;;;;;9.40;7.32;;;;;;;16.68;100.00;96736.09;5037739;28;20057;-62
2021/10/16 09:46:57;;;;;;;13.23;8.75;;;;;;;16.99;100.00;96727.25;5035569;28;20084;-60
2021/10/16 09:49:29;;;;;;;15.35;9.63;;;;;;;16.81;100.00;96731.03;5029217;28;20053;-61
2021/10/16 09:51:57;;;;;;;15.18;9.25;;;;;;;17.03;100.00;96728.53;5019219;28;20068;-60
2021/10/16 09:54:30;;;;;;;12.35;8.80;;;;;;;16.74;100.00;96732.75;5022023;28;23298;-59
2021/10/16 09:57:00;;;;;;;17.70;12.18;;;;;;;16.66;100.00;96732.78;5043544;28;20073;-61
2021/10/16 09:59:28;;;;;;;10.43;7.05;;;;;;;16.50;100.00;96736.38;5035883;28;20069;-60
2021/10/16 10:01:59;;;;;;;14.50;9.95;;;;;;;16.28;100.00;96734.50;5028737;28;20081;-60
2021/10/16 10:04:27;;;;;;;;;;;;;;;16.71;100.00;96727.75;5027635;28;20064;-59
2021/10/16 10:06:57;;;;;;;11.68;6.85;;;;;;;16.08;100.00;96729.56;5039918;28;19960;-61
2021/10/16 10:09:28;;;;;;;10.95;7.20;;;;;;;16.28;100.00;96730.00;5039117;28;20064;-60
2021/10/16 10:11:56;;;;;;;9.98;7.70;;;;;;;16.62;100.00;96720.84;5021326;28;20068;-59
2021/10/16 10:14:25;;;;;;;11.93;7.10;;;;;;;16.97;100.00;96726.63;5026471;28;20427;-59
2021/10/16 10:16:57;;;;;;;11.20;8.23;;;;;;;17.44;100.00;96718.38;5026228;28;20072;-59
2021/10/16 10:19:26;;;;;;;10.93;7.60;;;;;;;16.85;100.00;96724.34;5038700;28;20060;-61
2021/10/16 10:21:55;;;;;;;10.93;6.90;;;;;;;17.31;100.00;96719.00;5039457;28;20452;-61
2021/10/16 10:24:38;;;;;;;8.93;6.25;;;;;;;17.35;100.00;96721.31;5018144;28;20092;-60
2021/10/16 10:27:08;;;;;;;11.40;6.50;;;;;;;17.49;100.00;96723.19;5043246;28;22405;-59
2021/10/16 10:29:38;;;;;;;10.50;7.10;;;;;;;17.62;97.11;96717.19;5043095;28;20227;-60
2021/10/16 10:32:15;;;;;;;8.88;5.93;;;;;;;18.00;91.58;96715.34;5021500;28;20453;-61
2021/10/16 10:34:54;;;;;;;8.80;6.38;;;;;;;18.34;88.64;96719.22;5018689;28;20069;-60
2021/10/16 10:37:29;;;;;;;7.47;5.13;;;;;;;18.24;87.65;96719.53;5025685;28;20061;-59
2021/10/16 10:40:00;;;;;;;9.48;5.50;;;;;;;17.93;87.97;96714.41;5044768;28;20114;-61
2021/10/16 10:42:46;;;;;;;;;;;;;;;17.53;91.24;96716.47;5029121;28;20064;-60
2021/10/16 10:45:26;;;;;;;9.07;5.32;;;;;;;17.71;92.99;96718.78;5034736;28;19952;-61
2021/10/16 10:48:02;;;;;;;7.20;5.25;;;;;;;17.37;95.38;96720.09;5022417;28;20077;-61
2021/10/16 10:50:49;;;;;;;7.70;5.72;;;;;;;17.72;90.95;96713.28;5041201;28;20060;-61
2021/10/16 10:53:30;;;;;;;4.70;3.70;;;;;;;17.20;86.94;96708.75;5020091;28;20065;-60
2021/10/16 10:56:00;;;;;;;43.95;18.58;;;;;;;17.28;90.06;96715.88;5023256;28;20066;-59
2021/10/16 10:59:07;;;;;;;8.00;5.30;;;;;;;17.17;95.11;96718.94;5020713;28;20065;-61
2021/10/16 11:01:50;;;;;;;85.38;31.95;;;;;;;17.07;95.56;96705.88;4949459;28;20058;-59
2021/10/16 11:04:38;;;;;;;12.85;7.72;;;;;;;17.67;89.13;96709.50;5013236;28;20065;-58
2021/10/16 11:07:10;;;;;;;31.05;14.60;;;;;;;17.74;80.80;96708.56;5017359;28;20563;-61
2021/10/16 11:09:40;;;;;;;58.35;27.48;;;;;;;17.47;84.82;96704.69;5027156;28;20061;-59
2021/10/16 11:12:10;;;;;;;6.23;4.20;;;;;;;17.17;87.12;96702.94;5045853;28;20064;-59
2021/10/16 11:14:40;;;;;;;12.95;7.60;;;;;;;17.68;84.70;96695.94;5037863;28;20068;-60
2021/10/16 11:17:10;;;;;;;30.88;15.00;;;;;;;17.74;81.20;96697.06;5024115;28;20073;-60
2021/10/16 11:19:53;;;;;;;11.60;7.15;;;;;;;17.99;82.95;96698.47;5018156;28;20047;-61
2021/10/16 11:22:23;;;;;;;7.45;3.58;;;;;;;17.66;83.01;96700.66;5032343;28;20084;-61
2021/10/16 11:25:00;;;;;;;6.93;4.20;;;;;;;17.74;86.20;96684.56;5043278;28;20068;-60
2021/10/16 11:27:30;;;;;;;7.45;3.78;;;;;;;17.05;86.40;96683.91;5037489;28;20064;-61
2021/10/16 11:29:58;;;;;;;5.00;3.92;;;;;;;17.07;88.58;96679.25;5039689;28;20108;-61